createdAt,value
2018-08-04T00:01:33.491Z,99537.20
2018-08-04T00:04:01.526Z,99539.17
2018-08-04T00:06:33.029Z,99541.59
2018-08-04T00:09:01.534Z,99537.39
2018-08-04T00:11:29.593Z,99541.92
2018-08-04T00:13:57.520Z,99534.23
2018-08-04T00:16:25.760Z,99531.05
2018-08-04T00:18:53.763Z,99530.54
2018-08-04T00:21:21.758Z,99534.08
2018-08-04T00:23:50.167Z,99530.20
2018-08-04T00:26:18.048Z,99526.15
2018-08-04T00:28:45.895Z,99523.45
2018-08-04T00:31:14.356Z,99525.64
2018-08-04T00:33:42.427Z,99528.64
2018-08-04T00:36:10.446Z,99521.37
2018-08-04T00:38:38.809Z,99519.31
2018-08-04T00:41:06.797Z,99515.44
2018-08-04T00:43:34.870Z,99519.02
2018-08-04T00:46:02.995Z,99519.14
2018-08-04T00:48:30.963Z,99518.28
2018-08-04T00:50:58.864Z,99521.64
2018-08-04T00:53:27.012Z,99512.22
2018-08-04T00:55:54.893Z,99518.58
2018-08-04T00:58:22.819Z,99516.44
2018-08-04T01:00:50.993Z,99516.79
2018-08-04T01:03:18.960Z,99515.10
2018-08-04T01:05:46.865Z,99514.42
2018-08-04T01:08:15.208Z,99511.72
2018-08-04T01:10:43.129Z,99513.36
2018-08-04T01:13:11.061Z,99505.22
2018-08-04T01:15:39.115Z,99502.16
2018-08-04T01:18:07.183Z,99504.67
2018-08-04T01:20:35.181Z,99507.69
2018-08-04T01:23:03.087Z,99504.93
2018-08-04T01:25:31.060Z,99507.97
2018-08-04T01:27:59.111Z,99504.02
2018-08-04T01:30:27.418Z,99501.83
2018-08-04T01:32:55.439Z,99511.41
2018-08-04T01:35:23.444Z,99512.23
2018-08-04T01:37:51.820Z,99512.19
2018-08-04T01:40:19.744Z,99510.64
2018-08-04T01:42:47.660Z,99512.43
2018-08-04T01:45:15.569Z,99510.64
2018-08-04T01:47:43.598Z,99510.93
2018-08-04T01:50:11.406Z,99511.56
2018-08-04T01:52:39.722Z,99513.22
2018-08-04T01:55:07.716Z,99517.54
2018-08-04T01:57:35.735Z,99507.22
2018-08-04T02:00:03.961Z,99509.23
2018-08-04T02:02:32.003Z,99511.05
2018-08-04T02:04:59.799Z,99509.95
2018-08-04T02:07:28.220Z,99510.92
2018-08-04T02:09:56.283Z,99506.48
2018-08-04T02:12:24.370Z,99504.38
2018-08-04T02:14:52.594Z,99500.98
2018-08-04T02:17:20.388Z,99510.23
2018-08-04T02:19:48.380Z,99510.35
2018-08-04T02:22:16.669Z,99505.75
2018-08-04T02:24:44.600Z,99505.37
2018-08-04T02:27:12.446Z,99505.30
2018-08-04T02:29:40.663Z,99502.00
2018-08-04T02:32:08.666Z,99502.53
2018-08-04T02:34:36.807Z,99505.06
2018-08-04T02:37:05.027Z,99511.75
2018-08-04T02:39:33.062Z,99509.18
2018-08-04T02:42:01.179Z,99509.55
2018-08-04T02:44:29.442Z,99511.33
2018-08-04T02:46:57.481Z,99515.52
2018-08-04T02:49:27.388Z,99510.14
2018-08-04T02:51:55.940Z,99514.17
2018-08-04T02:54:23.911Z,99518.02
2018-08-04T02:56:51.663Z,99513.91
2018-08-04T02:59:19.986Z,99505.85
2018-08-04T03:01:47.955Z,99514.25
2018-08-04T03:04:15.959Z,99512.45
2018-08-04T03:06:43.843Z,99511.56
2018-08-04T03:09:12.451Z,99510.38
2018-08-04T03:11:40.565Z,99516.47
2018-08-04T03:14:08.567Z,99521.78
2018-08-04T03:16:36.674Z,99527.99
2018-08-04T03:19:04.796Z,99526.80
2018-08-04T03:21:32.942Z,99528.80
2018-08-04T03:24:00.928Z,99527.11
2018-08-04T03:26:28.787Z,99521.73
2018-08-04T03:28:57.009Z,99523.08
2018-08-04T03:31:24.936Z,99520.94
2018-08-04T03:33:52.840Z,99518.70
2018-08-04T03:36:21.169Z,99527.49
2018-08-04T03:38:49.264Z,99528.19
2018-08-04T03:41:17.210Z,99536.13
2018-08-04T03:43:45.157Z,99544.11
2018-08-04T03:46:13.089Z,99542.77
2018-08-04T03:48:40.963Z,99549.14
2018-08-04T03:51:08.926Z,99548.09
2018-08-04T03:53:37.080Z,99556.00
2018-08-04T03:56:05.095Z,99554.97
2018-08-04T03:58:33.382Z,99553.32
2018-08-04T04:01:01.422Z,99562.91
2018-08-04T04:03:29.437Z,99556.81
2018-08-04T04:05:57.376Z,99555.58
2018-08-04T04:08:25.306Z,99557.95
2018-08-04T04:10:53.401Z,99552.33
2018-08-04T04:13:21.351Z,99552.13
2018-08-04T04:15:49.462Z,99557.85
2018-08-04T04:18:17.476Z,99558.89
2018-08-04T04:20:45.498Z,99563.53
2018-08-04T04:23:13.394Z,99556.36
2018-08-04T04:25:41.416Z,99561.03
2018-08-04T04:28:09.581Z,99561.22
2018-08-04T04:30:37.479Z,99565.47
2018-08-04T04:33:05.394Z,99564.39
2018-08-04T04:35:33.808Z,99561.89
2018-08-04T04:38:01.871Z,99568.11
2018-08-04T04:40:29.906Z,99571.95
2018-08-04T04:42:58.420Z,99571.37
2018-08-04T04:45:26.330Z,99569.33
2018-08-04T04:47:54.119Z,99578.00
2018-08-04T04:50:22.431Z,99574.59
2018-08-04T04:52:50.364Z,99575.35
2018-08-04T04:55:18.238Z,99577.89
2018-08-04T04:57:46.502Z,99584.98
2018-08-04T05:00:14.333Z,99581.76
2018-08-04T05:02:42.443Z,99592.07
2018-08-04T05:05:10.632Z,99579.55
2018-08-04T05:07:38.763Z,99580.70
2018-08-04T05:10:06.805Z,99585.78
2018-08-04T05:12:34.858Z,99588.83
2018-08-04T05:15:02.804Z,99583.56
2018-08-04T05:17:30.628Z,99578.36
2018-08-04T05:19:58.804Z,99583.27
2018-08-04T05:22:26.783Z,99582.09
2018-08-04T05:24:54.678Z,99581.03
2018-08-04T05:27:23.029Z,99580.41
2018-08-04T05:29:50.964Z,99581.87
2018-08-04T05:32:18.801Z,99583.52
2018-08-04T05:34:46.804Z,99586.30
2018-08-04T05:37:14.879Z,99596.19
2018-08-04T05:39:43.064Z,99593.38
2018-08-04T05:42:11.021Z,99588.95
2018-08-04T05:44:39.103Z,99589.22
2018-08-04T05:47:12.916Z,99584.27
2018-08-04T05:49:41.006Z,99590.99
2018-08-04T05:52:09.060Z,99590.42
2018-08-04T05:54:37.510Z,99592.16
2018-08-04T05:57:05.601Z,99586.84
2018-08-04T05:59:33.628Z,99591.81
2018-08-04T06:02:02.151Z,99593.20
2018-08-04T06:04:30.103Z,99596.03
2018-08-04T06:06:58.472Z,99594.42
2018-08-04T06:09:27.000Z,99594.05
2018-08-04T06:12:57.781Z,99589.27
2018-08-04T06:15:26.378Z,99599.10
2018-08-04T06:17:54.512Z,99593.88
2018-08-04T06:20:22.591Z,99602.65
2018-08-04T06:22:51.005Z,99595.88
2018-08-04T06:25:18.920Z,99592.84
2018-08-04T06:27:46.843Z,99588.42
2018-08-04T06:30:14.912Z,99593.25
2018-08-04T06:32:43.200Z,99594.75
2018-08-04T06:35:11.292Z,99591.81
2018-08-04T06:37:39.482Z,99593.50
2018-08-04T06:40:07.885Z,99592.34
2018-08-04T06:42:35.835Z,99586.55
2018-08-04T06:45:04.175Z,99594.34
2018-08-04T06:47:32.188Z,99591.44
2018-08-04T06:50:00.040Z,99592.70
2018-08-04T06:52:28.019Z,99592.73
2018-08-04T06:54:55.944Z,99591.00
2018-08-04T06:57:23.922Z,99586.56
2018-08-04T06:59:51.922Z,99588.13
2018-08-04T07:02:19.841Z,99589.73
2018-08-04T07:04:47.859Z,99590.09
2018-08-04T07:07:15.746Z,99580.85
2018-08-04T07:09:43.640Z,99589.12
2018-08-04T07:12:11.710Z,99584.13
2018-08-04T07:14:40.241Z,99592.02
2018-08-04T07:17:08.367Z,99588.06
2018-08-04T07:19:36.367Z,99588.87
2018-08-04T07:22:04.448Z,99586.80
2018-08-04T07:24:32.522Z,99585.66
2018-08-04T07:27:00.466Z,99583.52
2018-08-04T07:29:28.887Z,99579.47
2018-08-04T07:31:56.797Z,99575.13
2018-08-04T07:34:24.719Z,99574.50
2018-08-04T07:36:52.534Z,99574.31
2018-08-04T07:39:20.375Z,99576.66
2018-08-04T07:41:48.276Z,99576.98
2018-08-04T07:44:16.285Z,99572.36
2018-08-04T07:46:44.086Z,99575.28
2018-08-04T07:49:11.941Z,99574.03
2018-08-04T07:51:40.269Z,99577.34
2018-08-04T07:54:08.134Z,99580.56
2018-08-04T07:56:35.990Z,99577.59
2018-08-04T07:59:03.753Z,99576.85
2018-08-04T08:01:31.666Z,99573.94
2018-08-04T08:03:59.631Z,99565.13
2018-08-04T08:06:27.479Z,99561.16
2018-08-04T08:08:55.344Z,99560.48
2018-08-04T08:11:23.272Z,99558.42
2018-08-04T08:13:51.452Z,99558.64
2018-08-04T08:16:19.244Z,99559.11
2018-08-04T08:18:47.087Z,99558.11
2018-08-04T08:21:15.294Z,99556.33
2018-08-04T08:23:43.242Z,99550.14
2018-08-04T08:26:12.760Z,99549.95
2018-08-04T08:28:41.520Z,99546.53
2018-08-04T08:31:09.419Z,99544.23
2018-08-04T08:33:38.161Z,99535.48
2018-08-04T08:36:06.652Z,99537.06
2018-08-04T08:38:34.633Z,99533.51
2018-08-04T08:41:02.631Z,99530.53
2018-08-04T08:43:30.716Z,99525.50
2018-08-04T08:45:58.870Z,99523.30
2018-08-04T08:48:26.708Z,99523.67
2018-08-04T08:50:54.933Z,99526.89
2018-08-04T08:53:23.066Z,99526.95
2018-08-04T08:55:50.920Z,99530.78
2018-08-04T08:58:18.924Z,99532.28
2018-08-04T09:00:46.710Z,99525.69
2018-08-04T09:03:14.636Z,99528.52
2018-08-04T09:05:42.503Z,99521.58
2018-08-04T09:08:10.371Z,99520.00
2018-08-04T09:10:38.234Z,99519.70
2018-08-04T09:13:06.499Z,99519.35
2018-08-04T09:15:34.491Z,99516.88
2018-08-04T09:18:02.225Z,99517.42
2018-08-04T09:20:30.209Z,99516.88
2018-08-04T09:22:58.116Z,99523.95
2018-08-04T09:25:25.906Z,99517.42
2018-08-04T09:27:53.862Z,99515.02
2018-08-04T09:30:21.719Z,99519.75
2018-08-04T09:32:49.581Z,99511.20
2018-08-04T09:35:17.456Z,99515.83
2018-08-04T09:37:45.256Z,99508.19
2018-08-04T09:40:14.445Z,99512.39
2018-08-04T09:42:43.555Z,99502.09
2018-08-04T09:45:11.483Z,99501.90
2018-08-04T09:47:40.146Z,99501.08
2018-08-04T09:50:09.772Z,99498.10
2018-08-04T09:52:37.646Z,99504.94
2018-08-04T09:55:06.554Z,99498.97
2018-08-04T09:57:34.693Z,99499.38
2018-08-04T10:00:02.713Z,99491.17
2018-08-04T10:02:30.524Z,99501.94
2018-08-04T10:04:58.248Z,99499.59
2018-08-04T10:07:26.046Z,99499.99
2018-08-04T10:09:53.911Z,99495.22
2018-08-04T10:12:21.785Z,99480.19
2018-08-04T10:14:49.583Z,99489.59
2018-08-04T10:17:17.355Z,99488.98
2018-08-04T10:19:45.360Z,99488.36
2018-08-04T10:22:13.416Z,99490.45
2018-08-04T10:31:25.909Z,99482.64
2018-08-04T10:33:53.885Z,99476.49
2018-08-04T10:36:21.725Z,99488.17
2018-08-04T10:38:49.959Z,99482.00
2018-08-04T10:41:17.842Z,99483.59
2018-08-04T10:43:45.607Z,99481.08
2018-08-04T10:46:13.641Z,99478.52
2018-08-04T10:48:41.605Z,99474.95
2018-08-04T10:51:09.521Z,99466.77
2018-08-04T10:53:38.017Z,99466.98
2018-08-04T10:56:05.981Z,99470.30
2018-08-04T10:58:33.846Z,99469.45
2018-08-04T11:01:01.807Z,99465.63
2018-08-04T11:03:29.694Z,99465.36
2018-08-04T11:05:57.576Z,99454.20
2018-08-04T11:08:25.852Z,99459.77
2018-08-04T11:10:53.781Z,99467.63
2018-08-04T11:13:21.589Z,99461.30
2018-08-04T11:15:49.446Z,99467.55
2018-08-04T11:18:17.366Z,99467.63
2018-08-04T11:20:45.215Z,99474.18
2018-08-04T11:23:13.160Z,99471.32
2018-08-04T11:25:40.906Z,99466.64
2018-08-04T11:28:08.911Z,99470.61
2018-08-04T11:30:38.242Z,99462.88
2018-08-04T11:33:06.035Z,99469.11
2018-08-04T11:35:33.847Z,99459.41
2018-08-04T11:39:31.530Z,99462.23
2018-08-04T11:41:59.262Z,99450.02
2018-08-04T11:44:27.096Z,99449.71
2018-08-04T11:46:55.179Z,99442.29
2018-08-04T11:49:23.096Z,99442.31
2018-08-04T11:51:50.989Z,99435.19
2018-08-04T11:54:18.913Z,99430.10
2018-08-04T11:56:46.718Z,99427.05
2018-08-04T11:59:14.704Z,99427.38
2018-08-04T12:02:45.458Z,99426.05
2018-08-04T12:05:13.246Z,99426.64
2018-08-04T12:07:41.066Z,99426.45
2018-08-04T12:10:09.167Z,99418.67
2018-08-04T12:12:37.033Z,99419.80
2018-08-04T12:15:05.121Z,99418.20
2018-08-04T12:17:33.187Z,99418.41
2018-08-04T12:20:00.985Z,99408.70
2018-08-04T12:22:28.748Z,99410.45
2018-08-04T12:24:56.986Z,99403.02
2018-08-04T12:27:24.810Z,99403.41
2018-08-04T12:29:52.598Z,99407.12
2018-08-04T12:32:20.490Z,99403.55
2018-08-04T12:34:48.225Z,99401.49
2018-08-04T12:37:16.115Z,99393.89
2018-08-04T12:39:44.386Z,99394.50
2018-08-04T12:42:12.159Z,99386.22
2018-08-04T12:44:40.028Z,99396.65
2018-08-04T12:47:08.006Z,99389.40
2018-08-04T12:49:35.857Z,99391.25
2018-08-04T12:52:03.783Z,99393.86
2018-08-04T12:54:33.226Z,99397.16
2018-08-04T12:57:01.098Z,99388.14
2018-08-04T12:59:28.948Z,99392.14
2018-08-04T13:01:57.028Z,99393.39
2018-08-04T13:04:24.756Z,99392.78
2018-08-04T13:06:52.583Z,99392.69
2018-08-04T13:09:20.387Z,99388.35
2018-08-04T13:11:48.170Z,99391.95
2018-08-04T13:14:16.058Z,99387.39
2018-08-04T13:16:43.868Z,99389.17
2018-08-04T13:19:11.608Z,99392.25
2018-08-04T13:21:39.367Z,99393.03
2018-08-04T13:24:07.786Z,99389.16
2018-08-04T13:26:35.515Z,99392.99
2018-08-04T13:29:03.387Z,99393.03
2018-08-04T13:31:31.429Z,99385.38
2018-08-04T13:33:59.299Z,99388.59
2018-08-04T13:36:27.092Z,99392.16
2018-08-04T13:38:55.017Z,99388.53
2018-08-04T13:41:22.684Z,99386.98
2018-08-04T13:43:50.407Z,99392.79
2018-08-04T13:46:18.940Z,99398.10
2018-08-04T13:48:46.788Z,99400.23
2018-08-04T13:51:14.612Z,99400.23
2018-08-04T13:53:42.453Z,99399.63
2018-08-04T13:56:10.233Z,99389.79
2018-08-04T13:58:38.018Z,99392.88
2018-08-04T14:01:06.134Z,99387.50
2018-08-04T14:03:34.027Z,99384.74
2018-08-04T14:06:01.863Z,99378.45
2018-08-04T14:08:30.784Z,99385.95
2018-08-04T14:10:58.663Z,99381.30
2018-08-04T14:13:26.468Z,99380.87
2018-08-04T14:15:54.225Z,99375.77
2018-08-04T14:18:22.055Z,99376.34
2018-08-04T14:20:49.832Z,99370.08
2018-08-04T14:23:18.136Z,99373.81
2018-08-04T14:25:45.860Z,99366.48
2018-08-04T14:29:16.711Z,99367.41
2018-08-04T14:31:44.504Z,99358.67
2018-08-04T14:34:12.291Z,99357.09
2018-08-04T14:36:40.494Z,99354.03
2018-08-04T14:39:11.491Z,99362.08
2018-08-04T14:41:39.397Z,99362.52
2018-08-04T14:44:07.632Z,99362.84
2018-08-04T14:46:35.478Z,99363.92
2018-08-04T14:49:03.224Z,99365.73
2018-08-04T14:51:31.391Z,99365.76
2018-08-04T14:53:59.412Z,99359.66
2018-08-04T14:56:27.242Z,99359.50
2018-08-04T14:58:55.422Z,99364.70
2018-08-04T15:01:23.289Z,99358.59
2018-08-04T15:03:51.034Z,99358.81
2018-08-04T15:06:19.423Z,99354.66
2018-08-04T15:08:47.276Z,99355.22
2018-08-04T15:11:15.062Z,99349.84
2018-08-04T15:13:42.931Z,99351.63
2018-08-04T15:16:10.779Z,99352.75
2018-08-04T15:18:39.057Z,99352.53
2018-08-04T15:21:07.426Z,99358.90
2018-08-04T15:23:35.310Z,99350.13
2018-08-04T15:26:03.247Z,99354.87
2018-08-04T15:28:31.634Z,99351.38
2018-08-04T15:30:59.414Z,99352.66
2018-08-04T15:33:27.196Z,99348.64
2018-08-04T15:35:55.147Z,99346.59
2018-08-04T15:38:22.972Z,99349.32
2018-08-04T15:40:50.834Z,99347.82
2018-08-04T15:43:19.214Z,99348.16
2018-08-04T15:45:47.068Z,99350.70
2018-08-04T15:48:15.810Z,99353.17
2018-08-04T15:50:43.896Z,99353.36
2018-08-04T15:53:11.725Z,99342.39
2018-08-04T15:55:39.510Z,99349.16
2018-08-04T15:58:07.831Z,99343.12
2018-08-04T16:00:35.637Z,99341.11
2018-08-04T16:03:03.446Z,99347.26
2018-08-04T16:05:31.660Z,99346.72
2018-08-04T16:07:59.535Z,99342.28
2018-08-04T16:10:27.416Z,99346.95
2018-08-04T16:12:55.238Z,99352.06
2018-08-04T16:15:23.235Z,99347.05
2018-08-04T16:17:51.035Z,99356.30
2018-08-04T16:20:19.275Z,99352.63
2018-08-04T16:22:47.037Z,99356.14
2018-08-04T16:25:15.222Z,99359.53
2018-08-04T16:27:43.423Z,99359.06
2018-08-04T16:30:11.585Z,99368.56
2018-08-04T16:32:40.147Z,99369.33
2018-08-04T16:35:11.112Z,99373.71
2018-08-04T16:37:39.057Z,99371.25
2018-08-04T16:40:07.020Z,99373.53
2018-08-04T16:42:35.268Z,99375.97
2018-08-04T16:45:04.369Z,99376.71
2018-08-04T16:47:33.312Z,99375.91
2018-08-04T16:50:01.291Z,99372.12
2018-08-04T16:52:29.215Z,99372.05
2018-08-04T16:54:57.119Z,99380.41
2018-08-04T16:57:25.501Z,99373.51
2018-08-04T16:59:53.481Z,99380.09
2018-08-04T17:02:21.416Z,99376.91
2018-08-04T17:04:49.253Z,99375.76
2018-08-04T17:07:17.014Z,99369.28
2018-08-04T17:09:44.811Z,99377.02
2018-08-04T17:12:12.705Z,99379.39
2018-08-04T17:14:40.530Z,99375.84
2018-08-04T17:17:08.383Z,99379.45
2018-08-04T17:19:36.283Z,99387.79
2018-08-04T17:22:04.195Z,99387.27
2018-08-04T17:24:32.199Z,99386.39
2018-08-04T17:27:00.045Z,99385.11
2018-08-04T17:29:28.010Z,99388.30
2018-08-04T17:31:56.086Z,99394.11
2018-08-04T17:34:24.135Z,99401.22
2018-08-04T17:36:52.264Z,99401.06
2018-08-04T17:39:20.142Z,99408.51
2018-08-04T17:41:48.033Z,99408.87
2018-08-04T17:44:16.119Z,99411.36
2018-08-04T17:46:43.926Z,99417.09
2018-08-04T17:49:12.187Z,99414.23
2018-08-04T17:51:40.383Z,99425.55
2018-08-04T17:54:08.544Z,99423.23
2018-08-04T17:56:36.498Z,99432.07
2018-08-04T17:59:04.355Z,99430.58
2018-08-04T18:01:32.158Z,99435.97
2018-08-04T18:04:00.173Z,99433.38
2018-08-04T18:06:28.099Z,99439.33
2018-08-04T18:08:56.041Z,99440.28
2018-08-04T18:11:24.134Z,99440.91
2018-08-04T18:13:52.216Z,99462.44
2018-08-04T18:16:21.252Z,99464.12
2018-08-04T18:18:49.320Z,99462.83
2018-08-04T18:21:17.103Z,99464.42
2018-08-04T18:23:45.255Z,99466.72
2018-08-04T18:26:13.649Z,99469.55
2018-08-04T18:28:41.655Z,99469.16
2018-08-04T18:31:09.602Z,99472.72
2018-08-04T18:33:38.010Z,99479.50
2018-08-04T18:36:42.519Z,99480.86
2018-08-04T18:39:11.419Z,99486.35
2018-08-04T18:41:39.637Z,99485.70
2018-08-04T18:44:08.280Z,99480.84
2018-08-04T18:46:36.647Z,99483.87
2018-08-04T18:49:04.758Z,99484.16
2018-08-04T18:51:32.811Z,99491.91
2018-08-04T18:54:01.072Z,99490.55
2018-08-04T18:56:29.015Z,99488.67
2018-08-04T18:58:56.881Z,99488.87
2018-08-04T19:01:24.853Z,99490.67
2018-08-04T19:03:52.876Z,99491.71
2018-08-04T19:06:21.369Z,99491.78
2018-08-04T19:08:49.900Z,99493.45
2018-08-04T19:11:17.766Z,99498.63
2018-08-04T19:13:45.881Z,99499.44
2018-08-04T19:16:13.991Z,99493.05
2018-08-04T19:18:41.809Z,99489.30
2018-08-04T19:21:09.754Z,99484.58
2018-08-04T19:23:38.280Z,99484.45
2018-08-04T19:26:06.305Z,99487.48
2018-08-04T19:28:34.304Z,99480.70
2018-08-04T19:31:02.359Z,99482.06
2018-08-04T19:33:30.186Z,99475.99
2018-08-04T19:35:58.111Z,99480.77
2018-08-04T19:38:26.296Z,99477.34
2018-08-04T19:40:54.368Z,99480.45
2018-08-04T19:43:22.467Z,99480.45
2018-08-04T19:45:50.540Z,99482.29
2018-08-04T19:48:18.400Z,99480.74
2018-08-04T19:50:46.273Z,99473.96
2018-08-04T19:53:14.602Z,99489.06
2018-08-04T19:55:42.477Z,99486.35
2018-08-04T19:58:10.646Z,99482.80
2018-08-04T20:00:39.081Z,99479.12
2018-08-04T20:03:07.607Z,99478.58
2018-08-04T20:05:35.598Z,99482.09
2018-08-04T20:08:04.083Z,99479.32
2018-08-04T20:10:32.277Z,99480.75
2018-08-04T20:13:00.242Z,99477.01
2018-08-04T20:15:29.163Z,99478.90
2018-08-04T20:17:57.195Z,99483.67
2018-08-04T20:20:25.271Z,99481.85
2018-08-04T20:22:53.711Z,99488.81
2018-08-04T20:25:21.719Z,99489.66
2018-08-04T20:27:49.926Z,99497.13
2018-08-04T20:30:17.974Z,99495.91
2018-08-04T20:32:45.868Z,99495.46
2018-08-04T20:35:13.872Z,99501.72
2018-08-04T20:37:41.850Z,99496.51
2018-08-04T20:40:09.778Z,99497.38
2018-08-04T20:42:37.668Z,99497.38
2018-08-04T20:45:05.983Z,99496.36
2018-08-04T20:47:33.907Z,99499.92
2018-08-04T20:50:01.989Z,99500.63
2018-08-04T20:52:29.855Z,99507.08
2018-08-04T20:54:57.761Z,99501.98
2018-08-04T20:57:25.773Z,99509.12
2018-08-04T20:59:54.002Z,99510.41
2018-08-04T21:02:21.933Z,99506.95
2018-08-04T21:04:50.157Z,99511.66
2018-08-04T21:07:18.128Z,99517.63
2018-08-04T21:09:46.027Z,99511.66
2018-08-04T21:12:14.048Z,99522.34
2018-08-04T21:14:41.959Z,99527.17
2018-08-04T21:17:10.316Z,99533.96
2018-08-04T21:19:38.391Z,99534.41
2018-08-04T21:22:06.663Z,99534.21
2018-08-04T21:24:34.625Z,99537.50
2018-08-04T21:27:03.184Z,99540.20
2018-08-04T21:29:31.373Z,99539.56
2018-08-04T21:31:59.409Z,99538.44
2018-08-04T21:34:27.784Z,99540.97
2018-08-04T21:36:55.662Z,99543.00
2018-08-04T21:39:23.666Z,99544.91
2018-08-04T21:41:51.820Z,99543.42
2018-08-04T21:44:19.722Z,99548.03
2018-08-04T21:46:48.761Z,99547.53
2018-08-04T21:49:17.464Z,99548.08
2018-08-04T21:51:46.687Z,99544.72
2018-08-04T21:54:19.915Z,99540.66
2018-08-04T21:56:44.496Z,99550.31
2018-08-04T21:59:12.410Z,99542.27
2018-08-04T22:01:46.912Z,99546.16
2018-08-04T22:04:14.784Z,99549.91
2018-08-04T22:07:51.744Z,99541.51
2018-08-04T22:10:19.776Z,99560.11
2018-08-04T22:12:47.981Z,99558.46
2018-08-04T22:15:16.454Z,99561.38
2018-08-04T22:17:44.488Z,99560.22
2018-08-04T22:20:13.916Z,99560.58
2018-08-04T22:22:42.826Z,99566.84
2018-08-04T22:25:15.049Z,99562.14
2018-08-04T22:27:43.146Z,99563.17
2018-08-04T22:30:13.306Z,99562.85
2018-08-04T22:32:42.128Z,99569.09
2018-08-04T22:35:10.531Z,99567.41
2018-08-04T22:37:39.198Z,99573.16
2018-08-04T22:40:08.248Z,99578.90
2018-08-04T22:42:36.958Z,99575.53
2018-08-04T22:45:16.098Z,99569.96
2018-08-04T22:47:44.920Z,99573.66
2018-08-04T22:50:13.067Z,99570.80
2018-08-04T22:52:41.126Z,99571.63
2018-08-04T22:55:09.609Z,99563.71
2018-08-04T22:57:37.676Z,99560.31
2018-08-04T23:00:06.873Z,99559.13
2018-08-04T23:02:34.815Z,99555.91
2018-08-04T23:05:02.976Z,99548.12
2018-08-04T23:07:31.003Z,99549.14
2018-08-04T23:09:59.528Z,99550.84
2018-08-04T23:12:27.493Z,99548.13
2018-08-04T23:14:55.560Z,99556.88
2018-08-04T23:17:23.704Z,99549.63
2018-08-04T23:19:51.748Z,99555.53
2018-08-04T23:22:19.787Z,99551.97
2018-08-04T23:24:48.242Z,99555.48
2018-08-04T23:27:16.385Z,99547.70
2018-08-04T23:29:44.459Z,99551.41
2018-08-04T23:32:12.915Z,99553.77
2018-08-04T23:34:40.959Z,99552.04
2018-08-04T23:37:09.041Z,99550.32
2018-08-04T23:39:37.144Z,99555.71
2018-08-04T23:42:05.246Z,99545.97
2018-08-04T23:44:33.232Z,99547.32
2018-08-04T23:47:01.474Z,99544.59
2018-08-04T23:49:29.468Z,99544.05
2018-08-04T23:51:57.334Z,99542.70
2018-08-04T23:54:25.547Z,99536.77
2018-08-04T23:56:53.495Z,99540.84
2018-08-04T23:59:21.306Z,99539.45
